sensor_id;sensor_type;location;lat;lon;timestamp;temperature;humidity
23251;DHT22;11794;49.730;10.088;2023-10-31T00:01:32;12.40;99.90
23251;DHT22;11794;49.730;10.088;2023-10-31T00:03:58;12.40;99.90
23251;DHT22;11794;49.730;10.088;2023-10-31T00:06:23;12.40;99.90
23251;DHT22;11794;49.730;10.088;2023-10-31T00:08:49;12.40;99.90
23251;DHT22;11794;49.730;10.088;2023-10-31T00:11:14;12.40;99.90
23251;DHT22;11794;49.730;10.088;2023-10-31T00:13:40;12.30;99.90
23251;DHT22;11794;49.730;10.088;2023-10-31T00:16:06;12.30;99.90
23251;DHT22;11794;49.730;10.088;2023-10-31T00:18:31;12.30;99.90
23251;DHT22;11794;49.730;10.088;2023-10-31T00:20:57;12.20;99.90
23251;DHT22;11794;49.730;10.088;2023-10-31T00:23:22;12.20;99.90
23251;DHT22;11794;49.730;10.088;2023-10-31T00:25:48;12.20;99.90
23251;DHT22;11794;49.730;10.088;2023-10-31T00:28:13;12.20;99.90
23251;DHT22;11794;49.730;10.088;2023-10-31T00:30:39;12.20;99.90
23251;DHT22;11794;49.730;10.088;2023-10-31T00:33:05;12.20;99.90
23251;DHT22;11794;49.730;10.088;2023-10-31T00:35:30;12.20;99.90
23251;DHT22;11794;49.730;10.088;2023-10-31T00:37:56;12.10;99.90
23251;DHT22;11794;49.730;10.088;2023-10-31T00:40:22;12.10;99.90
23251;DHT22;11794;49.730;10.088;2023-10-31T00:42:47;12.10;99.90
23251;DHT22;11794;49.730;10.088;2023-10-31T00:45:13;12.10;99.90
23251;DHT22;11794;49.730;10.088;2023-10-31T00:47:38;12.10;99.90
23251;DHT22;11794;49.730;10.088;2023-10-31T00:50:04;12.10;99.90
23251;DHT22;11794;49.730;10.088;2023-10-31T00:52:30;12.10;99.90
23251;DHT22;11794;49.730;10.088;2023-10-31T00:54:55;12.10;99.90
23251;DHT22;11794;49.730;10.088;2023-10-31T00:57:21;12.10;99.90
23251;DHT22;11794;49.730;10.088;2023-10-31T00:59:47;12.10;99.90
23251;DHT22;11794;49.730;10.088;2023-10-31T01:02:13;12.10;99.90
23251;DHT22;11794;49.730;10.088;2023-10-31T01:04:38;12.00;99.90
23251;DHT22;11794;49.730;10.088;2023-10-31T01:07:04;12.00;99.90
23251;DHT22;11794;49.730;10.088;2023-10-31T01:09:29;12.00;99.90
23251;DHT22;11794;49.730;10.088;2023-10-31T01:11:55;12.00;99.90
23251;DHT22;11794;49.730;10.088;2023-10-31T01:14:20;12.00;99.90
23251;DHT22;11794;49.730;10.088;2023-10-31T01:16:46;12.00;99.90
23251;DHT22;11794;49.730;10.088;2023-10-31T01:19:11;12.00;99.90
23251;DHT22;11794;49.730;10.088;2023-10-31T01:21:37;12.00;99.90
23251;DHT22;11794;49.730;10.088;2023-10-31T01:24:03;12.00;99.90
23251;DHT22;11794;49.730;10.088;2023-10-31T01:26:28;12.00;99.90
23251;DHT22;11794;49.730;10.088;2023-10-31T01:28:54;11.90;99.90
23251;DHT22;11794;49.730;10.088;2023-10-31T01:31:19;11.90;99.90
23251;DHT22;11794;49.730;10.088;2023-10-31T01:33:45;11.90;99.90
23251;DHT22;11794;49.730;10.088;2023-10-31T01:36:11;11.90;99.90
23251;DHT22;11794;49.730;10.088;2023-10-31T01:38:38;11.80;99.90
23251;DHT22;11794;49.730;10.088;2023-10-31T01:41:03;11.90;99.90
23251;DHT22;11794;49.730;10.088;2023-10-31T01:43:31;11.80;99.90
23251;DHT22;11794;49.730;10.088;2023-10-31T01:45:56;11.80;99.90
23251;DHT22;11794;49.730;10.088;2023-10-31T01:48:22;11.80;99.90
23251;DHT22;11794;49.730;10.088;2023-10-31T01:50:50;11.80;99.90
23251;DHT22;11794;49.730;10.088;2023-10-31T01:53:15;11.80;99.90
23251;DHT22;11794;49.730;10.088;2023-10-31T01:55:41;11.70;99.90
23251;DHT22;11794;49.730;10.088;2023-10-31T01:58:08;11.70;99.90
23251;DHT22;11794;49.730;10.088;2023-10-31T02:00:34;11.70;99.90
23251;DHT22;11794;49.730;10.088;2023-10-31T02:03:01;11.70;99.90
23251;DHT22;11794;49.730;10.088;2023-10-31T02:05:27;11.60;99.90
23251;DHT22;11794;49.730;10.088;2023-10-31T02:07:54;11.70;99.90
23251;DHT22;11794;49.730;10.088;2023-10-31T02:10:19;11.70;99.90
23251;DHT22;11794;49.730;10.088;2023-10-31T02:12:45;11.60;99.90
23251;DHT22;11794;49.730;10.088;2023-10-31T02:15:10;11.60;99.90
23251;DHT22;11794;49.730;10.088;2023-10-31T02:17:36;11.50;99.90
23251;DHT22;11794;49.730;10.088;2023-10-31T02:20:02;11.40;99.90
23251;DHT22;11794;49.730;10.088;2023-10-31T02:22:28;11.40;99.90
23251;DHT22;11794;49.730;10.088;2023-10-31T02:24:53;11.30;99.90
23251;DHT22;11794;49.730;10.088;2023-10-31T02:27:19;11.20;99.90
23251;DHT22;11794;49.730;10.088;2023-10-31T02:29:44;11.20;99.90
23251;DHT22;11794;49.730;10.088;2023-10-31T02:32:10;11.20;99.90
23251;DHT22;11794;49.730;10.088;2023-10-31T02:34:35;11.10;99.90
23251;DHT22;11794;49.730;10.088;2023-10-31T02:37:01;11.00;99.90
23251;DHT22;11794;49.730;10.088;2023-10-31T02:39:27;10.90;99.90
23251;DHT22;11794;49.730;10.088;2023-10-31T02:41:52;10.90;99.90
23251;DHT22;11794;49.730;10.088;2023-10-31T02:44:18;10.80;99.90
23251;DHT22;11794;49.730;10.088;2023-10-31T02:46:43;10.80;99.90
23251;DHT22;11794;49.730;10.088;2023-10-31T02:49:09;10.70;99.90
23251;DHT22;11794;49.730;10.088;2023-10-31T02:51:35;10.70;99.90
23251;DHT22;11794;49.730;10.088;2023-10-31T02:54:01;10.60;99.90
23251;DHT22;11794;49.730;10.088;2023-10-31T02:56:26;10.60;99.90
23251;DHT22;11794;49.730;10.088;2023-10-31T02:58:52;10.60;99.90
23251;DHT22;11794;49.730;10.088;2023-10-31T03:01:17;10.60;99.90
23251;DHT22;11794;49.730;10.088;2023-10-31T03:03:45;10.60;99.90
23251;DHT22;11794;49.730;10.088;2023-10-31T03:06:10;10.60;99.90
23251;DHT22;11794;49.730;10.088;2023-10-31T03:08:36;10.60;99.90
23251;DHT22;11794;49.730;10.088;2023-10-31T03:11:02;10.60;99.90
23251;DHT22;11794;49.730;10.088;2023-10-31T03:13:27;10.60;99.90
23251;DHT22;11794;49.730;10.088;2023-10-31T03:15:53;10.60;99.90
23251;DHT22;11794;49.730;10.088;2023-10-31T03:18:18;10.60;99.90
23251;DHT22;11794;49.730;10.088;2023-10-31T03:20:44;10.50;99.90
23251;DHT22;11794;49.730;10.088;2023-10-31T03:23:13;10.50;99.90
23251;DHT22;11794;49.730;10.088;2023-10-31T03:25:39;10.50;99.90
23251;DHT22;11794;49.730;10.088;2023-10-31T03:28:19;10.50;99.90
23251;DHT22;11794;49.730;10.088;2023-10-31T03:30:47;10.50;99.90
23251;DHT22;11794;49.730;10.088;2023-10-31T03:33:12;10.50;99.90
23251;DHT22;11794;49.730;10.088;2023-10-31T03:35:38;10.50;99.90
23251;DHT22;11794;49.730;10.088;2023-10-31T03:38:03;10.50;99.90
23251;DHT22;11794;49.730;10.088;2023-10-31T03:40:29;10.40;99.90
23251;DHT22;11794;49.730;10.088;2023-10-31T03:42:54;10.40;99.90
23251;DHT22;11794;49.730;10.088;2023-10-31T03:45:20;10.40;99.90
23251;DHT22;11794;49.730;10.088;2023-10-31T03:47:45;10.40;99.90
23251;DHT22;11794;49.730;10.088;2023-10-31T03:50:11;10.40;99.90
23251;DHT22;11794;49.730;10.088;2023-10-31T03:52:36;10.30;99.90
23251;DHT22;11794;49.730;10.088;2023-10-31T03:55:02;10.30;99.90
23251;DHT22;11794;49.730;10.088;2023-10-31T03:57:28;10.30;99.90
23251;DHT22;11794;49.730;10.088;2023-10-31T03:59:53;10.30;99.90
23251;DHT22;11794;49.730;10.088;2023-10-31T04:02:19;10.30;99.90
23251;DHT22;11794;49.730;10.088;2023-10-31T04:04:44;10.30;99.90
23251;DHT22;11794;49.730;10.088;2023-10-31T04:07:10;10.30;99.90
23251;DHT22;11794;49.730;10.088;2023-10-31T04:09:35;10.20;99.90
23251;DHT22;11794;49.730;10.088;2023-10-31T04:12:01;10.20;99.90
23251;DHT22;11794;49.730;10.088;2023-10-31T04:14:26;10.20;99.90
23251;DHT22;11794;49.730;10.088;2023-10-31T04:16:52;10.20;99.90
23251;DHT22;11794;49.730;10.088;2023-10-31T04:19:17;10.20;99.90
23251;DHT22;11794;49.730;10.088;2023-10-31T04:21:43;10.20;99.90
23251;DHT22;11794;49.730;10.088;2023-10-31T04:24:08;10.20;99.90
23251;DHT22;11794;49.730;10.088;2023-10-31T04:26:34;10.10;99.90
23251;DHT22;11794;49.730;10.088;2023-10-31T04:28:59;10.20;99.90
23251;DHT22;11794;49.730;10.088;2023-10-31T04:31:25;10.20;99.90
23251;DHT22;11794;49.730;10.088;2023-10-31T04:33:50;10.20;99.90
23251;DHT22;11794;49.730;10.088;2023-10-31T04:36:16;10.20;99.90
23251;DHT22;11794;49.730;10.088;2023-10-31T04:38:41;10.20;99.90
23251;DHT22;11794;49.730;10.088;2023-10-31T04:41:08;10.20;99.90
23251;DHT22;11794;49.730;10.088;2023-10-31T04:43:33;10.20;99.90
23251;DHT22;11794;49.730;10.088;2023-10-31T04:45:59;10.20;99.90
23251;DHT22;11794;49.730;10.088;2023-10-31T04:48:24;10.20;99.90
23251;DHT22;11794;49.730;10.088;2023-10-31T04:50:50;10.20;99.90
23251;DHT22;11794;49.730;10.088;2023-10-31T04:53:15;10.20;99.90
23251;DHT22;11794;49.730;10.088;2023-10-31T04:55:41;10.20;99.90
23251;DHT22;11794;49.730;10.088;2023-10-31T04:58:06;10.20;99.90
23251;DHT22;11794;49.730;10.088;2023-10-31T05:00:32;10.20;99.90
23251;DHT22;11794;49.730;10.088;2023-10-31T05:02:57;10.20;99.90
23251;DHT22;11794;49.730;10.088;2023-10-31T05:05:23;10.20;99.90
23251;DHT22;11794;49.730;10.088;2023-10-31T05:07:49;10.20;99.90
23251;DHT22;11794;49.730;10.088;2023-10-31T05:10:14;10.20;99.90
23251;DHT22;11794;49.730;10.088;2023-10-31T05:12:40;10.20;99.90
23251;DHT22;11794;49.730;10.088;2023-10-31T05:15:06;10.30;99.90
23251;DHT22;11794;49.730;10.088;2023-10-31T05:17:31;10.30;99.90
23251;DHT22;11794;49.730;10.088;2023-10-31T05:19:57;10.30;99.90
23251;DHT22;11794;49.730;10.088;2023-10-31T05:22:23;10.30;99.90
23251;DHT22;11794;49.730;10.088;2023-10-31T05:24:48;10.30;99.90
23251;DHT22;11794;49.730;10.088;2023-10-31T05:27:14;10.30;99.90
23251;DHT22;11794;49.730;10.088;2023-10-31T05:29:39;10.30;99.90
23251;DHT22;11794;49.730;10.088;2023-10-31T05:32:05;10.30;99.90
23251;DHT22;11794;49.730;10.088;2023-10-31T05:34:31;10.30;99.90
23251;DHT22;11794;49.730;10.088;2023-10-31T05:36:56;10.30;99.90
23251;DHT22;11794;49.730;10.088;2023-10-31T05:39:22;10.30;99.90
23251;DHT22;11794;49.730;10.088;2023-10-31T05:41:47;10.30;99.90
23251;DHT22;11794;49.730;10.088;2023-10-31T05:44:12;10.30;99.90
23251;DHT22;11794;49.730;10.088;2023-10-31T05:46:39;10.30;99.90
23251;DHT22;11794;49.730;10.088;2023-10-31T05:49:06;10.30;99.90
23251;DHT22;11794;49.730;10.088;2023-10-31T05:51:32;10.30;99.90
23251;DHT22;11794;49.730;10.088;2023-10-31T05:53:59;10.30;99.90
23251;DHT22;11794;49.730;10.088;2023-10-31T05:56:25;10.30;99.90
23251;DHT22;11794;49.730;10.088;2023-10-31T05:58:50;10.30;99.90
23251;DHT22;11794;49.730;10.088;2023-10-31T06:01:16;10.30;99.90
23251;DHT22;11794;49.730;10.088;2023-10-31T06:03:42;10.20;99.90
23251;DHT22;11794;49.730;10.088;2023-10-31T06:06:09;10.30;99.90
23251;DHT22;11794;49.730;10.088;2023-10-31T06:08:35;10.30;99.90
23251;DHT22;11794;49.730;10.088;2023-10-31T06:11:00;10.30;99.90
23251;DHT22;11794;49.730;10.088;2023-10-31T06:13:26;10.20;99.90
23251;DHT22;11794;49.730;10.088;2023-10-31T06:15:54;10.20;99.90
23251;DHT22;11794;49.730;10.088;2023-10-31T06:18:20;10.30;99.90
23251;DHT22;11794;49.730;10.088;2023-10-31T06:20:45;10.20;99.90
23251;DHT22;11794;49.730;10.088;2023-10-31T06:23:11;10.30;99.90
23251;DHT22;11794;49.730;10.088;2023-10-31T06:25:36;10.30;99.90
23251;DHT22;11794;49.730;10.088;2023-10-31T06:28:02;10.30;99.90
23251;DHT22;11794;49.730;10.088;2023-10-31T06:30:27;10.30;99.90
23251;DHT22;11794;49.730;10.088;2023-10-31T06:32:53;10.30;99.90
23251;DHT22;11794;49.730;10.088;2023-10-31T06:35:19;10.30;99.90
23251;DHT22;11794;49.730;10.088;2023-10-31T06:37:45;10.30;99.90
23251;DHT22;11794;49.730;10.088;2023-10-31T06:40:10;10.30;99.90
23251;DHT22;11794;49.730;10.088;2023-10-31T06:42:36;10.30;99.90
23251;DHT22;11794;49.730;10.088;2023-10-31T06:45:02;10.30;99.90
23251;DHT22;11794;49.730;10.088;2023-10-31T06:47:28;10.30;99.90
23251;DHT22;11794;49.730;10.088;2023-10-31T06:49:53;10.40;99.90
23251;DHT22;11794;49.730;10.088;2023-10-31T06:52:19;10.40;99.90
23251;DHT22;11794;49.730;10.088;2023-10-31T06:54:44;10.40;99.90
23251;DHT22;11794;49.730;10.088;2023-10-31T06:57:10;10.50;99.90
23251;DHT22;11794;49.730;10.088;2023-10-31T06:59:35;10.50;99.90
23251;DHT22;11794;49.730;10.088;2023-10-31T07:02:01;10.50;99.90
23251;DHT22;11794;49.730;10.088;2023-10-31T07:04:26;10.50;99.90
23251;DHT22;11794;49.730;10.088;2023-10-31T07:06:52;10.60;99.90
23251;DHT22;11794;49.730;10.088;2023-10-31T07:09:26;10.60;99.90
23251;DHT22;11794;49.730;10.088;2023-10-31T07:11:51;10.60;99.90
23251;DHT22;11794;49.730;10.088;2023-10-31T07:14:17;10.60;99.90
23251;DHT22;11794;49.730;10.088;2023-10-31T07:16:43;10.60;99.90
23251;DHT22;11794;49.730;10.088;2023-10-31T07:19:10;10.60;99.90
23251;DHT22;11794;49.730;10.088;2023-10-31T07:21:35;10.60;99.90
23251;DHT22;11794;49.730;10.088;2023-10-31T07:24:02;10.60;99.90
23251;DHT22;11794;49.730;10.088;2023-10-31T07:26:27;10.70;99.90
23251;DHT22;11794;49.730;10.088;2023-10-31T07:28:54;10.70;99.90
23251;DHT22;11794;49.730;10.088;2023-10-31T07:31:19;10.70;99.90
23251;DHT22;11794;49.730;10.088;2023-10-31T07:33:45;10.70;99.90
23251;DHT22;11794;49.730;10.088;2023-10-31T07:36:11;10.60;99.90
23251;DHT22;11794;49.730;10.088;2023-10-31T07:38:36;10.50;99.90
23251;DHT22;11794;49.730;10.088;2023-10-31T07:41:02;10.50;99.90
23251;DHT22;11794;49.730;10.088;2023-10-31T07:43:28;10.40;99.90
23251;DHT22;11794;49.730;10.088;2023-10-31T07:45:53;10.50;99.90
23251;DHT22;11794;49.730;10.088;2023-10-31T07:48:19;10.50;99.90
23251;DHT22;11794;49.730;10.088;2023-10-31T07:50:44;10.50;99.90
23251;DHT22;11794;49.730;10.088;2023-10-31T07:53:10;10.60;99.90
23251;DHT22;11794;49.730;10.088;2023-10-31T07:55:35;10.60;99.90
23251;DHT22;11794;49.730;10.088;2023-10-31T07:58:01;10.60;99.90
23251;DHT22;11794;49.730;10.088;2023-10-31T08:00:27;10.60;99.90
23251;DHT22;11794;49.730;10.088;2023-10-31T08:02:52;10.70;99.90
23251;DHT22;11794;49.730;10.088;2023-10-31T08:05:18;10.60;99.90
23251;DHT22;11794;49.730;10.088;2023-10-31T08:07:43;10.70;99.90
23251;DHT22;11794;49.730;10.088;2023-10-31T08:10:09;10.70;99.90
23251;DHT22;11794;49.730;10.088;2023-10-31T08:12:35;10.80;99.90
23251;DHT22;11794;49.730;10.088;2023-10-31T08:15:01;10.80;99.90
23251;DHT22;11794;49.730;10.088;2023-10-31T08:17:27;10.80;99.90
23251;DHT22;11794;49.730;10.088;2023-10-31T08:19:52;10.80;99.90
23251;DHT22;11794;49.730;10.088;2023-10-31T08:22:17;10.80;99.90
23251;DHT22;11794;49.730;10.088;2023-10-31T08:24:43;10.80;99.90
23251;DHT22;11794;49.730;10.088;2023-10-31T08:27:09;10.80;99.90
23251;DHT22;11794;49.730;10.088;2023-10-31T08:29:35;10.80;99.90
23251;DHT22;11794;49.730;10.088;2023-10-31T08:32:01;10.90;99.90
23251;DHT22;11794;49.730;10.088;2023-10-31T08:34:26;10.90;99.90
23251;DHT22;11794;49.730;10.088;2023-10-31T08:36:52;10.90;99.90
23251;DHT22;11794;49.730;10.088;2023-10-31T08:39:18;10.90;99.90
23251;DHT22;11794;49.730;10.088;2023-10-31T08:41:56;10.90;99.90
23251;DHT22;11794;49.730;10.088;2023-10-31T08:44:23;10.90;99.90
23251;DHT22;11794;49.730;10.088;2023-10-31T08:46:48;10.80;99.90
23251;DHT22;11794;49.730;10.088;2023-10-31T08:49:15;10.90;99.90
23251;DHT22;11794;49.730;10.088;2023-10-31T08:51:41;10.90;99.90
23251;DHT22;11794;49.730;10.088;2023-10-31T08:54:07;10.90;99.90
23251;DHT22;11794;49.730;10.088;2023-10-31T08:56:34;11.00;99.90
23251;DHT22;11794;49.730;10.088;2023-10-31T08:58:59;11.00;99.90
23251;DHT22;11794;49.730;10.088;2023-10-31T09:01:26;11.00;99.90
23251;DHT22;11794;49.730;10.088;2023-10-31T09:03:51;11.00;99.90
23251;DHT22;11794;49.730;10.088;2023-10-31T09:06:18;11.00;99.90
23251;DHT22;11794;49.730;10.088;2023-10-31T09:08:43;11.10;99.90
23251;DHT22;11794;49.730;10.088;2023-10-31T09:11:09;11.10;99.90
23251;DHT22;11794;49.730;10.088;2023-10-31T09:13:34;11.20;99.90
23251;DHT22;11794;49.730;10.088;2023-10-31T09:16:00;11.10;99.90
23251;DHT22;11794;49.730;10.088;2023-10-31T09:18:25;11.20;99.90
23251;DHT22;11794;49.730;10.088;2023-10-31T09:20:51;11.30;99.90
23251;DHT22;11794;49.730;10.088;2023-10-31T09:23:17;11.40;99.90
23251;DHT22;11794;49.730;10.088;2023-10-31T09:25:43;11.60;99.90
23251;DHT22;11794;49.730;10.088;2023-10-31T09:28:08;11.70;99.90
23251;DHT22;11794;49.730;10.088;2023-10-31T09:30:34;11.70;99.90
23251;DHT22;11794;49.730;10.088;2023-10-31T09:32:59;11.80;99.90
23251;DHT22;11794;49.730;10.088;2023-10-31T09:35:25;11.90;99.90
23251;DHT22;11794;49.730;10.088;2023-10-31T09:37:51;11.80;99.90
23251;DHT22;11794;49.730;10.088;2023-10-31T09:40:17;11.90;99.90
23251;DHT22;11794;49.730;10.088;2023-10-31T09:42:44;11.90;99.90
23251;DHT22;11794;49.730;10.088;2023-10-31T09:45:10;12.00;99.90
23251;DHT22;11794;49.730;10.088;2023-10-31T09:47:36;12.00;99.90
23251;DHT22;11794;49.730;10.088;2023-10-31T09:50:02;12.10;99.90
23251;DHT22;11794;49.730;10.088;2023-10-31T09:52:29;12.10;99.90
23251;DHT22;11794;49.730;10.088;2023-10-31T09:54:54;12.10;99.90
23251;DHT22;11794;49.730;10.088;2023-10-31T09:57:21;12.20;99.90
23251;DHT22;11794;49.730;10.088;2023-10-31T09:59:47;12.30;99.90
23251;DHT22;11794;49.730;10.088;2023-10-31T10:02:12;12.40;99.90
23251;DHT22;11794;49.730;10.088;2023-10-31T10:04:38;12.50;99.90
23251;DHT22;11794;49.730;10.088;2023-10-31T10:07:04;12.50;99.90
23251;DHT22;11794;49.730;10.088;2023-10-31T10:09:30;12.60;99.90
23251;DHT22;11794;49.730;10.088;2023-10-31T10:11:59;12.80;99.90
23251;DHT22;11794;49.730;10.088;2023-10-31T10:14:25;12.60;99.90
23251;DHT22;11794;49.730;10.088;2023-10-31T10:16:55;12.60;99.90
23251;DHT22;11794;49.730;10.088;2023-10-31T10:19:21;12.60;99.90
23251;DHT22;11794;49.730;10.088;2023-10-31T10:21:55;12.60;99.90
23251;DHT22;11794;49.730;10.088;2023-10-31T10:24:22;12.60;99.90
23251;DHT22;11794;49.730;10.088;2023-10-31T10:26:48;12.70;99.90
23251;DHT22;11794;49.730;10.088;2023-10-31T10:29:15;12.60;99.90
23251;DHT22;11794;49.730;10.088;2023-10-31T10:31:41;12.70;99.90
23251;DHT22;11794;49.730;10.088;2023-10-31T10:34:08;12.70;99.90
23251;DHT22;11794;49.730;10.088;2023-10-31T10:36:33;12.80;99.90
23251;DHT22;11794;49.730;10.088;2023-10-31T10:38:59;12.80;99.90
23251;DHT22;11794;49.730;10.088;2023-10-31T10:41:26;12.60;99.90
23251;DHT22;11794;49.730;10.088;2023-10-31T10:44:07;12.50;99.90
23251;DHT22;11794;49.730;10.088;2023-10-31T10:46:34;12.40;99.90
23251;DHT22;11794;49.730;10.088;2023-10-31T10:49:04;12.40;99.90
23251;DHT22;11794;49.730;10.088;2023-10-31T10:51:46;12.50;99.90
23251;DHT22;11794;49.730;10.088;2023-10-31T10:54:19;12.40;99.90
23251;DHT22;11794;49.730;10.088;2023-10-31T10:56:54;12.40;99.90
23251;DHT22;11794;49.730;10.088;2023-10-31T10:59:30;12.40;99.90
23251;DHT22;11794;49.730;10.088;2023-10-31T11:02:00;12.40;99.90
23251;DHT22;11794;49.730;10.088;2023-10-31T11:04:26;12.40;99.90
23251;DHT22;11794;49.730;10.088;2023-10-31T11:06:53;12.40;99.90
23251;DHT22;11794;49.730;10.088;2023-10-31T11:09:19;12.50;99.90
23251;DHT22;11794;49.730;10.088;2023-10-31T11:11:45;12.60;99.90
23251;DHT22;11794;49.730;10.088;2023-10-31T11:14:15;12.80;99.90
23251;DHT22;11794;49.730;10.088;2023-10-31T11:16:45;12.90;99.90
23251;DHT22;11794;49.730;10.088;2023-10-31T11:19:13;12.90;99.90
23251;DHT22;11794;49.730;10.088;2023-10-31T11:21:57;12.70;99.90
23251;DHT22;11794;49.730;10.088;2023-10-31T11:24:23;12.60;99.90
23251;DHT22;11794;49.730;10.088;2023-10-31T11:26:52;12.40;99.90
23251;DHT22;11794;49.730;10.088;2023-10-31T11:29:17;12.40;99.90
23251;DHT22;11794;49.730;10.088;2023-10-31T11:31:43;12.40;99.90
23251;DHT22;11794;49.730;10.088;2023-10-31T11:34:09;12.40;99.90
23251;DHT22;11794;49.730;10.088;2023-10-31T11:36:38;12.40;99.90
23251;DHT22;11794;49.730;10.088;2023-10-31T11:39:14;12.50;99.90
23251;DHT22;11794;49.730;10.088;2023-10-31T11:41:48;12.50;99.90
23251;DHT22;11794;49.730;10.088;2023-10-31T11:44:15;12.50;99.90
23251;DHT22;11794;49.730;10.088;2023-10-31T11:46:41;12.50;99.90
23251;DHT22;11794;49.730;10.088;2023-10-31T11:49:07;12.50;99.90
23251;DHT22;11794;49.730;10.088;2023-10-31T11:51:33;12.50;99.90
23251;DHT22;11794;49.730;10.088;2023-10-31T11:54:02;12.50;99.90
23251;DHT22;11794;49.730;10.088;2023-10-31T11:56:28;12.40;99.90
23251;DHT22;11794;49.730;10.088;2023-10-31T11:59:02;12.50;99.90
23251;DHT22;11794;49.730;10.088;2023-10-31T12:01:28;12.50;99.90
23251;DHT22;11794;49.730;10.088;2023-10-31T12:03:54;12.50;99.90
23251;DHT22;11794;49.730;10.088;2023-10-31T12:06:19;12.40;99.90
23251;DHT22;11794;49.730;10.088;2023-10-31T12:08:47;12.40;99.90
23251;DHT22;11794;49.730;10.088;2023-10-31T12:11:18;12.50;99.90
23251;DHT22;11794;49.730;10.088;2023-10-31T12:13:58;12.60;99.90
23251;DHT22;11794;49.730;10.088;2023-10-31T12:16:28;12.60;99.90
23251;DHT22;11794;49.730;10.088;2023-10-31T12:18:55;12.60;99.90
23251;DHT22;11794;49.730;10.088;2023-10-31T12:24:06;12.70;99.90
23251;DHT22;11794;49.730;10.088;2023-10-31T12:26:33;12.90;99.90
23251;DHT22;11794;49.730;10.088;2023-10-31T12:29:07;12.80;99.90
23251;DHT22;11794;49.730;10.088;2023-10-31T12:31:33;12.80;99.90
23251;DHT22;11794;49.730;10.088;2023-10-31T12:34:07;12.80;99.90
23251;DHT22;11794;49.730;10.088;2023-10-31T12:36:35;12.80;99.90
23251;DHT22;11794;49.730;10.088;2023-10-31T12:39:02;12.90;99.90
23251;DHT22;11794;49.730;10.088;2023-10-31T12:41:28;13.00;99.90
23251;DHT22;11794;49.730;10.088;2023-10-31T12:43:54;13.10;99.90
23251;DHT22;11794;49.730;10.088;2023-10-31T12:46:30;13.00;99.90
23251;DHT22;11794;49.730;10.088;2023-10-31T12:48:58;13.00;99.90
23251;DHT22;11794;49.730;10.088;2023-10-31T12:51:24;13.10;99.90
23251;DHT22;11794;49.730;10.088;2023-10-31T12:53:51;13.00;99.90
23251;DHT22;11794;49.730;10.088;2023-10-31T12:56:39;13.00;99.90
23251;DHT22;11794;49.730;10.088;2023-10-31T12:59:06;13.00;99.90
23251;DHT22;11794;49.730;10.088;2023-10-31T13:01:42;13.00;99.90
23251;DHT22;11794;49.730;10.088;2023-10-31T13:04:08;13.00;99.90
23251;DHT22;11794;49.730;10.088;2023-10-31T13:06:35;13.00;99.90
23251;DHT22;11794;49.730;10.088;2023-10-31T13:09:00;13.00;99.90
23251;DHT22;11794;49.730;10.088;2023-10-31T13:11:30;13.00;99.90
23251;DHT22;11794;49.730;10.088;2023-10-31T13:13:55;13.00;99.90
23251;DHT22;11794;49.730;10.088;2023-10-31T13:16:21;13.00;99.90
23251;DHT22;11794;49.730;10.088;2023-10-31T13:18:46;13.10;99.90
23251;DHT22;11794;49.730;10.088;2023-10-31T13:21:12;13.20;99.90
23251;DHT22;11794;49.730;10.088;2023-10-31T13:23:43;13.20;99.90
23251;DHT22;11794;49.730;10.088;2023-10-31T13:26:13;13.30;99.90
23251;DHT22;11794;49.730;10.088;2023-10-31T13:28:39;13.20;99.90
23251;DHT22;11794;49.730;10.088;2023-10-31T13:31:05;13.10;99.90
23251;DHT22;11794;49.730;10.088;2023-10-31T13:33:32;13.10;99.90
23251;DHT22;11794;49.730;10.088;2023-10-31T13:35:58;13.10;99.90
23251;DHT22;11794;49.730;10.088;2023-10-31T13:38:23;12.90;99.90
23251;DHT22;11794;49.730;10.088;2023-10-31T13:40:49;12.90;99.90
23251;DHT22;11794;49.730;10.088;2023-10-31T13:43:14;12.90;99.90
23251;DHT22;11794;49.730;10.088;2023-10-31T13:45:40;12.80;99.90
23251;DHT22;11794;49.730;10.088;2023-10-31T13:48:05;12.70;99.90
23251;DHT22;11794;49.730;10.088;2023-10-31T13:50:31;12.60;99.90
23251;DHT22;11794;49.730;10.088;2023-10-31T13:52:56;12.60;99.90
23251;DHT22;11794;49.730;10.088;2023-10-31T13:55:22;12.60;99.90
23251;DHT22;11794;49.730;10.088;2023-10-31T13:57:49;12.60;99.90
23251;DHT22;11794;49.730;10.088;2023-10-31T14:00:15;12.70;99.90
23251;DHT22;11794;49.730;10.088;2023-10-31T14:02:41;12.60;99.90
23251;DHT22;11794;49.730;10.088;2023-10-31T14:05:06;12.70;99.90
23251;DHT22;11794;49.730;10.088;2023-10-31T14:07:32;12.70;99.90
23251;DHT22;11794;49.730;10.088;2023-10-31T14:09:58;12.70;99.90
23251;DHT22;11794;49.730;10.088;2023-10-31T14:12:24;12.80;99.90
23251;DHT22;11794;49.730;10.088;2023-10-31T14:14:50;12.80;99.90
23251;DHT22;11794;49.730;10.088;2023-10-31T14:17:16;12.80;99.90
23251;DHT22;11794;49.730;10.088;2023-10-31T14:19:42;12.80;99.90
23251;DHT22;11794;49.730;10.088;2023-10-31T14:22:08;12.90;99.90
23251;DHT22;11794;49.730;10.088;2023-10-31T14:24:34;12.90;99.90
23251;DHT22;11794;49.730;10.088;2023-10-31T14:27:01;12.80;99.90
23251;DHT22;11794;49.730;10.088;2023-10-31T14:29:26;12.80;99.90
23251;DHT22;11794;49.730;10.088;2023-10-31T14:31:52;12.70;99.90
23251;DHT22;11794;49.730;10.088;2023-10-31T14:34:19;12.70;99.90
23251;DHT22;11794;49.730;10.088;2023-10-31T14:36:45;12.70;99.90
23251;DHT22;11794;49.730;10.088;2023-10-31T14:39:10;12.80;99.90
23251;DHT22;11794;49.730;10.088;2023-10-31T14:41:37;12.90;99.90
23251;DHT22;11794;49.730;10.088;2023-10-31T14:44:02;12.90;99.90
23251;DHT22;11794;49.730;10.088;2023-10-31T14:46:31;13.00;99.90
23251;DHT22;11794;49.730;10.088;2023-10-31T14:48:58;13.10;99.90
23251;DHT22;11794;49.730;10.088;2023-10-31T14:51:23;13.20;99.90
23251;DHT22;11794;49.730;10.088;2023-10-31T14:53:49;13.20;99.90
23251;DHT22;11794;49.730;10.088;2023-10-31T14:56:15;13.10;99.90
23251;DHT22;11794;49.730;10.088;2023-10-31T14:58:41;13.10;99.90
23251;DHT22;11794;49.730;10.088;2023-10-31T15:01:07;13.00;99.90
23251;DHT22;11794;49.730;10.088;2023-10-31T15:03:32;13.00;99.90
23251;DHT22;11794;49.730;10.088;2023-10-31T15:05:58;13.20;99.90
23251;DHT22;11794;49.730;10.088;2023-10-31T15:08:24;13.50;99.90
23251;DHT22;11794;49.730;10.088;2023-10-31T15:10:52;13.50;99.90
23251;DHT22;11794;49.730;10.088;2023-10-31T15:13:18;13.40;99.90